createdAt,value
2022-08-22T00:00:13.927Z,21.10
2022-08-22T00:02:59.072Z,21.15
2022-08-22T00:03:11.561Z,24.05
2022-08-22T00:05:26.131Z,21.10
2022-08-22T00:10:37.474Z,21.12
2022-08-22T00:15:46.014Z,21.14
2022-08-22T00:20:59.823Z,21.15
2022-08-22T00:26:08.052Z,21.17
2022-08-22T00:31:24.810Z,21.19
2022-08-22T00:36:32.972Z,21.21
2022-08-22T00:41:51.809Z,21.23
2022-08-22T00:47:13.720Z,21.24
2022-08-22T00:52:33.154Z,21.25
2022-08-22T00:57:45.733Z,21.25
2022-08-22T01:03:12.106Z,21.26
2022-08-22T01:08:26.154Z,21.27
2022-08-22T01:13:39.384Z,21.27
2022-08-22T01:18:54.085Z,21.27
2022-08-22T01:24:12.547Z,21.27
2022-08-22T01:29:42.394Z,21.26
2022-08-22T01:35:11.517Z,21.24
2022-08-22T01:40:30.067Z,21.21
2022-08-22T01:45:49.058Z,21.19
2022-08-22T01:50:56.739Z,21.15
2022-08-22T01:56:08.038Z,21.11
2022-08-22T02:01:27.267Z,21.08
2022-08-22T02:06:40.499Z,21.03
2022-08-22T02:11:49.683Z,20.99
2022-08-22T02:16:58.556Z,20.94
2022-08-22T02:22:06.991Z,20.89
2022-08-22T02:27:18.860Z,20.84
2022-08-22T02:32:28.905Z,20.78
2022-08-22T02:37:37.503Z,20.73
2022-08-22T02:42:45.657Z,20.67
2022-08-22T02:47:57.552Z,20.61
2022-08-22T02:53:08.196Z,20.55
2022-08-22T02:58:18.137Z,20.51
2022-08-22T03:03:25.487Z,20.46
2022-08-22T03:08:32.382Z,20.42
2022-08-22T03:13:43.058Z,20.37
2022-08-22T03:18:55.766Z,20.33
2022-08-22T03:24:05.423Z,20.29
2022-08-22T03:29:13.932Z,20.24
2022-08-22T03:34:21.801Z,20.21
2022-08-22T03:39:40.985Z,20.18
2022-08-22T03:44:58.521Z,20.14
2022-08-22T03:50:26.626Z,20.11
2022-08-22T03:55:42.576Z,20.08
2022-08-22T04:01:07.060Z,20.05
2022-08-22T04:06:35.759Z,20.03
2022-08-22T04:11:58.070Z,20.01
2022-08-22T04:17:10.125Z,19.99
2022-08-22T04:22:33.747Z,19.99
2022-08-22T04:27:43.446Z,19.98
2022-08-22T04:32:53.389Z,19.96
2022-08-22T04:38:03.442Z,19.96
2022-08-22T04:43:12.310Z,19.94
2022-08-22T04:48:22.866Z,19.93
2022-08-22T04:53:42.448Z,19.91
2022-08-22T04:58:58.563Z,19.89
2022-08-22T05:04:05.444Z,19.88
2022-08-22T05:09:16.307Z,19.87
2022-08-22T05:14:26.487Z,19.87
2022-08-22T05:19:33.653Z,19.86
2022-08-22T05:24:40.647Z,19.87
2022-08-22T05:29:48.488Z,19.87
2022-08-22T05:34:56.159Z,19.88
2022-08-22T05:40:02.626Z,19.89
2022-08-22T05:45:12.364Z,19.90
2022-08-22T05:50:20.108Z,19.90
2022-08-22T05:55:27.950Z,19.92
2022-08-22T06:00:37.520Z,19.93
2022-08-22T06:05:45.264Z,19.94
2022-08-22T06:10:52.833Z,19.96
2022-08-22T06:16:06.020Z,19.98
2022-08-22T06:21:14.034Z,20.01
2022-08-22T06:26:21.372Z,20.05
2022-08-22T06:31:28.911Z,20.08
2022-08-22T06:36:36.275Z,20.12
2022-08-22T06:41:46.595Z,20.16
2022-08-22T06:46:53.871Z,20.20
2022-08-22T06:52:02.506Z,20.24
2022-08-22T06:57:13.153Z,20.28
2022-08-22T07:02:24.242Z,20.32
2022-08-22T07:07:30.267Z,20.36
2022-08-22T07:12:38.556Z,20.40
2022-08-22T07:17:51.395Z,20.44
2022-08-22T07:22:57.993Z,20.48
2022-08-22T07:28:14.553Z,20.53
2022-08-22T07:33:31.067Z,20.58
2022-08-22T07:38:43.233Z,20.64
2022-08-22T07:43:51.982Z,20.69
2022-08-22T07:49:09.473Z,20.75
2022-08-22T07:54:17.659Z,20.80
2022-08-22T07:59:23.629Z,20.85
2022-08-22T08:04:33.480Z,20.92
2022-08-22T08:09:43.988Z,20.99
2022-08-22T08:14:53.102Z,21.08
2022-08-22T08:19:59.298Z,21.18
2022-08-22T08:25:05.668Z,21.31
2022-08-22T08:30:16.971Z,21.43
2022-08-22T08:35:25.531Z,21.56
2022-08-22T08:40:50.634Z,21.70
2022-08-22T08:46:25.286Z,21.86
2022-08-22T08:51:44.763Z,22.01
2022-08-22T08:56:56.165Z,22.15
2022-08-22T09:02:13.802Z,22.28
2022-08-22T09:07:39.474Z,22.42
2022-08-22T09:18:40.389Z,22.68
2022-08-22T09:23:59.330Z,22.79
2022-08-22T09:29:16.167Z,22.90
2022-08-22T09:34:29.366Z,23.01
2022-08-22T09:39:37.328Z,23.11
2022-08-22T09:40:16.370Z,22.54
2022-08-22T09:44:50.481Z,23.21
2022-08-22T09:50:05.491Z,23.32
2022-08-22T09:55:19.492Z,23.43
2022-08-22T10:00:45.909Z,23.54
2022-08-22T10:05:56.802Z,23.65
2022-08-22T10:11:10.150Z,23.75
2022-08-22T10:16:22.529Z,23.83
2022-08-22T10:21:36.786Z,23.91
2022-08-22T10:26:46.638Z,23.97
2022-08-22T10:31:59.300Z,24.02
2022-08-22T10:37:10.817Z,24.05
2022-08-22T10:42:24.470Z,24.08
2022-08-22T10:47:36.938Z,24.09
2022-08-22T10:52:48.078Z,24.09
2022-08-22T10:58:05.494Z,24.11
2022-08-22T11:03:19.977Z,24.12
2022-08-22T11:08:43.795Z,24.14
2022-08-22T11:13:56.968Z,24.18
2022-08-22T11:19:14.883Z,24.21
2022-08-22T11:24:53.989Z,24.26
2022-08-22T11:30:06.296Z,24.33
2022-08-22T11:35:17.861Z,24.39
2022-08-22T11:40:37.754Z,24.46
2022-08-22T11:45:46.725Z,24.54
2022-08-22T11:50:57.673Z,24.62
2022-08-22T11:56:11.001Z,24.71
2022-08-22T12:01:18.747Z,24.79
2022-08-22T12:06:34.563Z,24.87
2022-08-22T12:11:44.748Z,24.94
2022-08-22T12:16:59.670Z,25.01
2022-08-22T12:22:15.582Z,25.08
2022-08-22T12:27:29.430Z,25.15
2022-08-22T12:32:54.561Z,25.21
2022-08-22T12:38:29.330Z,25.29
2022-08-22T12:43:39.914Z,25.35
2022-08-22T12:48:57.135Z,25.41
2022-08-22T12:54:16.176Z,25.46
2022-08-22T12:59:26.621Z,25.52
2022-08-22T13:04:35.843Z,25.59
2022-08-22T13:09:43.284Z,25.64
2022-08-22T13:14:51.768Z,25.69
2022-08-22T13:20:04.816Z,25.73
2022-08-22T13:25:25.534Z,25.79
2022-08-22T13:30:34.176Z,25.86
2022-08-22T13:35:51.900Z,25.94
2022-08-22T13:40:59.751Z,26.03
2022-08-22T13:46:11.085Z,26.12
2022-08-22T13:51:21.781Z,26.21
2022-08-22T13:56:30.266Z,26.28
2022-08-22T14:01:39.449Z,26.34
2022-08-22T14:06:49.284Z,26.36
2022-08-22T14:12:12.279Z,26.37
2022-08-22T14:17:20.857Z,26.36
2022-08-22T14:22:31.661Z,26.35
2022-08-22T14:27:39.593Z,26.34
2022-08-22T14:32:48.463Z,26.35
2022-08-22T14:37:57.509Z,26.38
2022-08-22T14:43:07.034Z,26.41
2022-08-22T14:48:30.353Z,26.44
2022-08-22T14:53:39.919Z,26.46
2022-08-22T14:58:51.233Z,26.47
2022-08-22T15:04:01.174Z,26.47
2022-08-22T15:09:08.898Z,26.46
2022-08-22T15:14:23.748Z,26.43
2022-08-22T15:19:30.538Z,26.40
2022-08-22T15:24:40.915Z,26.36
2022-08-22T15:29:51.599Z,26.32
2022-08-22T15:35:05.030Z,26.28
2022-08-22T15:40:14.406Z,26.24
2022-08-22T15:45:33.958Z,26.22
2022-08-22T15:50:42.715Z,26.19
2022-08-22T15:56:05.616Z,26.17
2022-08-22T16:01:19.914Z,26.14
2022-08-22T16:06:39.533Z,26.12
2022-08-22T16:11:55.584Z,26.08
2022-08-22T16:17:04.365Z,26.06
2022-08-22T16:22:16.713Z,26.03
2022-08-22T16:27:24.119Z,25.99
2022-08-22T16:32:29.996Z,25.97
2022-08-22T16:37:48.375Z,25.93
2022-08-22T16:43:11.342Z,25.90
2022-08-22T16:48:32.890Z,25.86
2022-08-22T16:53:55.554Z,25.82
2022-08-22T16:59:29.489Z,25.78
2022-08-22T17:04:50.546Z,25.73
2022-08-22T17:10:11.604Z,25.69
2022-08-22T17:15:23.556Z,25.65
2022-08-22T17:20:34.232Z,25.61
2022-08-22T17:25:49.195Z,25.57
2022-08-22T17:31:02.679Z,25.52
2022-08-22T17:36:26.266Z,25.48
2022-08-22T17:41:39.702Z,25.43
2022-08-22T17:46:51.144Z,25.38
2022-08-22T17:52:00.856Z,25.33
2022-08-22T17:57:10.140Z,25.27
2022-08-22T18:02:17.936Z,25.21
2022-08-22T18:07:33.580Z,25.16
2022-08-22T18:12:45.745Z,25.09
2022-08-22T18:17:54.706Z,25.03
2022-08-22T18:23:02.341Z,24.96
2022-08-22T18:28:11.474Z,24.90
2022-08-22T18:33:22.825Z,24.83
2022-08-22T18:38:31.304Z,24.77
2022-08-22T18:43:40.417Z,24.69
2022-08-22T18:49:13.721Z,24.62
2022-08-22T18:54:30.661Z,24.55
2022-08-22T18:59:47.034Z,24.47
2022-08-22T19:05:02.702Z,24.40
2022-08-22T19:10:18.957Z,24.32
2022-08-22T19:15:32.278Z,24.26
2022-08-22T19:20:59.179Z,24.18
2022-08-22T19:26:21.920Z,24.10
2022-08-22T19:31:44.088Z,24.02
2022-08-22T19:37:10.636Z,23.93
2022-08-22T19:42:40.746Z,23.83
2022-08-22T19:47:54.989Z,23.75
2022-08-22T19:53:05.374Z,23.68
2022-08-22T19:58:16.873Z,23.59
2022-08-22T20:03:32.960Z,23.52
2022-08-22T20:09:01.228Z,23.45
2022-08-22T20:14:25.036Z,23.38
2022-08-22T20:19:41.179Z,23.30
2022-08-22T20:24:49.608Z,23.25
2022-08-22T20:30:02.652Z,23.19
2022-08-22T20:35:09.200Z,23.14
2022-08-22T20:40:55.095Z,23.08
2022-08-22T20:45:54.042Z,23.03
2022-08-22T20:51:05.986Z,22.97
2022-08-22T20:56:12.402Z,22.92
2022-08-22T21:01:24.454Z,22.86
2022-08-22T21:06:35.307Z,22.81
2022-08-22T21:11:51.588Z,22.75
2022-08-22T21:16:57.125Z,22.71
2022-08-22T21:22:14.194Z,22.66
2022-08-22T21:27:24.747Z,22.62
2022-08-22T21:32:33.500Z,22.58
2022-08-22T21:37:41.463Z,22.53
2022-08-22T21:42:48.333Z,22.50
2022-08-22T21:47:54.462Z,22.46
2022-08-22T21:53:05.960Z,22.42
2022-08-22T21:58:35.848Z,22.38
2022-08-22T22:03:42.897Z,22.33
2022-08-22T22:08:49.268Z,22.30
2022-08-22T22:13:55.069Z,22.25
2022-08-22T22:19:01.124Z,22.20
2022-08-22T22:24:07.401Z,22.15
2022-08-22T22:29:13.591Z,22.11
2022-08-22T22:34:18.986Z,22.06
2022-08-22T22:39:24.977Z,22.01
2022-08-22T22:44:30.517Z,21.97
2022-08-22T22:49:36.237Z,21.93
2022-08-22T22:54:41.893Z,21.88
2022-08-22T22:59:48.185Z,21.84
2022-08-22T23:04:55.949Z,21.80
2022-08-22T23:10:02.295Z,21.77
2022-08-22T23:15:09.236Z,21.73
2022-08-22T23:20:15.206Z,21.69
2022-08-22T23:25:20.731Z,21.66
2022-08-22T23:30:26.376Z,21.63
2022-08-22T23:35:32.083Z,21.60
2022-08-22T23:40:37.794Z,21.57
2022-08-22T23:45:43.766Z,21.54
2022-08-22T23:50:50.010Z,21.51
2022-08-22T23:55:55.700Z,21.48
